Time;durP1;ratioP1;P1;durP2;ratioP2;P2;SDS_P1;SDS_P2;PMS_P1;PMS_P2;Temp;Humidity;BMP_temperature;BMP_pressure;BME280_temperature;BME280_humidity;BME280_pressure;Samples;Min_cycle;Max_cycle;Signal;HPM_P1;HPM_P2
2021/10/27 00:01:05;;;;;;;2.40;1.33;;;;;;;;;;5033687;28;20068;-38
2021/10/27 00:03:31;;;;;;;4.00;2.00;;;;;;;;;;5040003;28;20040;-38
2021/10/27 00:05:56;;;;;;;5.82;1.80;;;;;;;;;;5039100;28;20496;-38
2021/10/27 00:08:21;;;;;;;6.22;2.42;;;;;;;;;;5039032;28;20159;-42
2021/10/27 00:10:48;;;;;;;4.00;2.55;;;;;;;;;;5038997;28;20559;-39
2021/10/27 00:13:13;;;;;;;2.53;1.45;;;;;;;;;;5037807;28;20421;-38
2021/10/27 00:15:38;;;;;;;2.28;1.55;;;;;;;;;;5039596;28;20047;-38
2021/10/27 00:18:04;;;;;;;3.55;1.88;;;;;;;;;;5038496;28;20083;-37
2021/10/27 00:20:29;;;;;;;1.98;1.25;;;;;;;;;;5041671;28;20062;-39
2021/10/27 00:22:55;;;;;;;4.13;2.08;;;;;;;;;;5037769;28;20437;-38
2021/10/27 00:25:20;;;;;;;3.70;1.85;;;;;;;;;;5042780;28;20029;-38
2021/10/27 00:27:45;;;;;;;4.50;2.35;;;;;;;;;;5040756;28;20032;-40
2021/10/27 00:30:11;;;;;;;3.38;1.25;;;;;;;;;;5042520;28;20032;-38
2021/10/27 00:32:36;;;;;;;5.75;1.38;;;;;;;;;;5039595;28;20109;-38
2021/10/27 00:35:02;;;;;;;4.50;2.30;;;;;;;;;;5042923;28;20424;-39
2021/10/27 00:37:27;;;;;;;6.43;3.65;;;;;;;;;;5040376;28;20636;-39
2021/10/27 00:39:53;;;;;;;3.33;2.05;;;;;;;;;;5037969;28;20026;-39
2021/10/27 00:42:18;;;;;;;4.25;3.33;;;;;;;;;;5044168;28;20030;-43
2021/10/27 00:44:44;;;;;;;5.63;2.08;;;;;;;;;;5043780;28;20028;-37
2021/10/27 00:47:12;;;;;;;5.22;3.60;;;;;;;;;;5042477;28;20037;-37
2021/10/27 00:49:41;;;;;;;4.50;3.10;;;;;;;;;;5042586;28;20159;-37
2021/10/27 00:52:09;;;;;;;13.20;2.95;;;;;;;;;;5039184;28;20022;-38
2021/10/27 00:54:35;;;;;;;8.98;3.00;;;;;;;;;;5040559;28;20168;-37
2021/10/27 00:57:01;;;;;;;9.65;5.30;;;;;;;;;;5042418;28;20099;-38
2021/10/27 00:59:27;;;;;;;4.88;3.00;;;;;;;;;;5040928;28;20021;-37
2021/10/27 01:01:53;;;;;;;6.50;3.30;;;;;;;;;;5040769;28;20068;-37
2021/10/27 01:04:18;;;;;;;5.00;3.08;;;;;;;;;;5039276;28;20075;-38
2021/10/27 01:06:44;;;;;;;3.95;3.05;;;;;;;;;;5039181;28;20036;-37
2021/10/27 01:09:10;;;;;;;5.40;3.60;;;;;;;;;;5035094;28;20128;-40
2021/10/27 01:11:35;;;;;;;8.35;3.15;;;;;;;;;;5039742;28;20079;-40
2021/10/27 01:14:03;;;;;;;5.03;3.15;;;;;;;;;;5041020;28;20469;-40
2021/10/27 01:16:29;;;;;;;12.30;4.25;;;;;;;;;;5035050;28;20020;-39
2021/10/27 01:18:55;;;;;;;12.00;7.28;;;;;;;;;;5038548;28;20021;-39
2021/10/27 01:21:21;;;;;;;8.85;5.25;;;;;;;;;;5039499;28;20229;-42
2021/10/27 01:23:47;;;;;;;10.50;7.00;;;;;;;;;;5038665;28;20026;-38
2021/10/27 01:26:12;;;;;;;8.40;3.92;;;;;;;;;;5035396;28;20305;-42
2021/10/27 01:28:41;;;;;;;7.20;3.13;;;;;;;;;;5035613;28;20113;-38
2021/10/27 01:31:07;;;;;;;2.78;1.63;;;;;;;;;;5034624;28;20032;-43
2021/10/27 01:33:32;;;;;;;2.95;2.03;;;;;;;;;;5035200;28;20013;-39
2021/10/27 01:36:03;;;;;;;3.38;2.63;;;;;;;;;;5041391;28;20024;-38
2021/10/27 01:38:29;;;;;;;6.47;2.80;;;;;;;;;;5037667;28;20033;-38
2021/10/27 01:40:56;;;;;;;5.13;3.85;;;;;;;;;;5034401;28;20055;-37
2021/10/27 01:43:42;;;;;;;5.95;3.97;;;;;;;;;;5038318;28;20056;-39
2021/10/27 01:46:07;;;;;;;7.50;3.78;;;;;;;;;;5036529;28;20158;-40
2021/10/27 01:48:33;;;;;;;4.00;2.13;;;;;;;;;;5038216;28;20744;-41
2021/10/27 01:50:58;;;;;;;5.85;3.70;;;;;;;;;;5035530;28;20106;-39
2021/10/27 01:53:23;;;;;;;8.55;4.88;;;;;;;;;;5038980;28;20025;-42
2021/10/27 01:55:49;;;;;;;7.68;4.32;;;;;;;;;;5036963;28;20009;-42
2021/10/27 01:58:14;;;;;;;8.82;4.03;;;;;;;;;;5036639;28;20517;-45
2021/10/27 02:00:39;;;;;;;5.65;3.67;;;;;;;;;;5036409;28;20025;-38
2021/10/27 02:03:04;;;;;;;3.55;2.83;;;;;;;;;;5037041;28;20496;-39
2021/10/27 02:05:30;;;;;;;7.07;4.05;;;;;;;;;;5034703;28;20032;-39
2021/10/27 02:07:55;;;;;;;7.60;4.80;;;;;;;;;;5040913;28;20033;-38
2021/10/27 02:10:20;;;;;;;6.28;4.00;;;;;;;;;;5035827;28;20483;-39
2021/10/27 02:12:46;;;;;;;7.10;3.55;;;;;;;;;;5033636;28;20028;-40
2021/10/27 02:15:12;;;;;;;9.88;5.00;;;;;;;;;;5036298;28;20507;-38
2021/10/27 02:17:37;;;;;;;4.70;3.15;;;;;;;;;;5034970;28;20021;-38
2021/10/27 02:20:04;;;;;;;9.02;3.60;;;;;;;;;;5033812;28;20017;-38
2021/10/27 02:22:29;;;;;;;8.48;4.97;;;;;;;;;;5038780;28;20109;-44
2021/10/27 02:24:54;;;;;;;10.63;7.60;;;;;;;;;;5035053;28;20100;-42
2021/10/27 02:27:19;;;;;;;10.55;5.78;;;;;;;;;;5038357;28;20124;-38
2021/10/27 02:29:45;;;;;;;15.82;5.35;;;;;;;;;;5036016;28;20049;-38
2021/10/27 02:32:10;;;;;;;6.05;4.43;;;;;;;;;;5034909;28;20661;-39
2021/10/27 02:34:35;;;;;;;6.18;4.13;;;;;;;;;;5038566;28;20017;-38
2021/10/27 02:37:01;;;;;;;8.02;4.53;;;;;;;;;;5035001;28;20029;-38
2021/10/27 02:39:27;;;;;;;12.70;5.10;;;;;;;;;;5037293;28;20072;-39
2021/10/27 02:41:52;;;;;;;4.78;3.35;;;;;;;;;;5037409;28;20028;-39
2021/10/27 02:44:18;;;;;;;8.88;3.70;;;;;;;;;;5040684;28;20057;-39
2021/10/27 02:46:43;;;;;;;10.63;5.05;;;;;;;;;;5038262;28;20053;-38
2021/10/27 02:49:09;;;;;;;9.43;5.75;;;;;;;;;;5037727;28;20013;-42
2021/10/27 02:51:34;;;;;;;10.35;5.32;;;;;;;;;;5036283;28;20474;-38
2021/10/27 02:53:59;;;;;;;15.15;5.97;;;;;;;;;;5035068;28;20420;-43
2021/10/27 02:56:25;;;;;;;17.05;5.90;;;;;;;;;;5036840;28;20464;-41
2021/10/27 02:58:50;;;;;;;15.38;8.25;;;;;;;;;;5034269;28;20552;-39
2021/10/27 03:01:16;;;;;;;12.02;7.28;;;;;;;;;;5032956;28;20025;-39
2021/10/27 03:03:42;;;;;;;19.15;7.13;;;;;;;;;;5035110;28;20033;-41
2021/10/27 03:06:07;;;;;;;9.80;6.57;;;;;;;;;;5036256;28;20151;-39
2021/10/27 03:08:32;;;;;;;12.20;6.00;;;;;;;;;;5038614;28;20029;-43
2021/10/27 03:10:57;;;;;;;8.85;6.78;;;;;;;;;;5036134;28;20468;-41
2021/10/27 03:13:23;;;;;;;8.45;5.43;;;;;;;;;;5036058;28;20512;-40
2021/10/27 03:15:49;;;;;;;6.68;4.38;;;;;;;;;;5035920;28;20024;-38
2021/10/27 03:18:14;;;;;;;12.38;4.68;;;;;;;;;;5034673;28;20029;-40
2021/10/27 03:20:40;;;;;;;5.47;3.58;;;;;;;;;;5032265;28;20053;-38
2021/10/27 03:23:05;;;;;;;5.38;3.45;;;;;;;;;;5034787;28;20037;-38
2021/10/27 03:25:30;;;;;;;7.55;3.88;;;;;;;;;;5039510;28;20025;-41
2021/10/27 03:27:56;;;;;;;12.15;4.38;;;;;;;;;;5036605;28;20166;-39
2021/10/27 03:30:21;;;;;;;5.43;3.22;;;;;;;;;;5035101;28;20150;-42
2021/10/27 03:32:47;;;;;;;4.88;2.75;;;;;;;;;;5035417;28;20416;-45
2021/10/27 03:35:12;;;;;;;3.47;2.30;;;;;;;;;;5033969;28;20048;-45
2021/10/27 03:37:37;;;;;;;5.50;2.40;;;;;;;;;;5034893;28;20923;-42
2021/10/27 03:40:04;;;;;;;2.92;2.17;;;;;;;;;;5033339;28;20448;-38
2021/10/27 03:42:29;;;;;;;2.35;1.98;;;;;;;;;;5040308;28;20028;-41
2021/10/27 03:44:55;;;;;;;6.30;2.78;;;;;;;;;;5036341;28;20021;-43
2021/10/27 03:47:20;;;;;;;3.30;2.42;;;;;;;;;;5036245;28;20117;-38
2021/10/27 03:49:46;;;;;;;3.92;2.28;;;;;;;;;;5029502;28;20051;-44
2021/10/27 03:52:11;;;;;;;5.85;2.55;;;;;;;;;;5036782;28;20025;-45
2021/10/27 03:54:36;;;;;;;3.88;2.83;;;;;;;;;;5035283;28;20021;-43
2021/10/27 03:57:02;;;;;;;3.88;2.15;;;;;;;;;;5035170;28;20385;-39
2021/10/27 03:59:27;;;;;;;5.32;3.25;;;;;;;;;;5036065;28;20109;-39
2021/10/27 04:01:52;;;;;;;3.58;3.05;;;;;;;;;;5032873;28;20053;-42
2021/10/27 04:04:18;;;;;;;6.38;3.55;;;;;;;;;;5035794;28;20590;-38
2021/10/27 04:06:43;;;;;;;5.30;4.32;;;;;;;;;;5033914;28;20032;-42
2021/10/27 04:09:08;;;;;;;6.32;3.83;;;;;;;;;;5034120;28;20029;-42
2021/10/27 04:11:34;;;;;;;4.72;3.42;;;;;;;;;;5034774;28;20661;-39
2021/10/27 04:14:00;;;;;;;5.63;3.60;;;;;;;;;;5036085;28;20017;-38
2021/10/27 04:16:25;;;;;;;12.82;4.93;;;;;;;;;;5035708;28;20510;-40
2021/10/27 04:18:50;;;;;;;7.70;3.10;;;;;;;;;;5032271;28;20377;-39
2021/10/27 04:21:15;;;;;;;6.60;2.75;;;;;;;;;;5033900;28;20372;-43
2021/10/27 04:23:41;;;;;;;3.88;2.90;;;;;;;;;;5035277;28;20443;-41
2021/10/27 04:26:07;;;;;;;6.75;4.18;;;;;;;;;;5035425;28;20086;-44
2021/10/27 04:28:32;;;;;;;8.73;4.85;;;;;;;;;;5034584;28;20546;-42
2021/10/27 04:31:01;;;;;;;14.27;6.90;;;;;;;;;;5037213;28;20022;-37
2021/10/27 04:33:26;;;;;;;7.90;5.32;;;;;;;;;;5036152;28;20484;-40
2021/10/27 04:35:52;;;;;;;7.32;4.85;;;;;;;;;;5036671;28;20082;-42
2021/10/27 04:38:20;;;;;;;9.18;7.63;;;;;;;;;;5036644;28;20026;-41
2021/10/27 04:40:45;;;;;;;11.35;6.63;;;;;;;;;;5036748;28;20101;-41
2021/10/27 04:43:10;;;;;;;11.10;6.57;;;;;;;;;;5037473;28;20498;-39
2021/10/27 04:45:36;;;;;;;11.90;5.22;;;;;;;;;;5039990;28;20488;-39
2021/10/27 04:48:02;;;;;;;7.72;6.63;;;;;;;;;;5037803;28;20634;-37
2021/10/27 04:50:27;;;;;;;17.17;6.85;;;;;;;;;;5038309;28;20040;-41
2021/10/27 04:52:53;;;;;;;12.65;6.68;;;;;;;;;;5039272;28;20074;-42
2021/10/27 04:55:18;;;;;;;9.40;5.25;;;;;;;;;;5034962;28;20018;-38
2021/10/27 04:57:44;;;;;;;20.95;8.13;;;;;;;;;;5036166;28;20054;-39
2021/10/27 05:00:09;;;;;;;9.73;5.60;;;;;;;;;;5035304;28;20029;-38
2021/10/27 05:02:34;;;;;;;9.02;7.13;;;;;;;;;;5037101;28;20030;-38
2021/10/27 05:05:00;;;;;;;10.35;7.22;;;;;;;;;;5036164;28;20080;-39
2021/10/27 05:07:25;;;;;;;17.48;10.52;;;;;;;;;;5038841;28;20052;-40
2021/10/27 05:09:51;;;;;;;24.52;9.43;;;;;;;;;;5032906;28;20494;-41
2021/10/27 05:12:16;;;;;;;9.80;6.43;;;;;;;;;;5035628;28;20033;-43
2021/10/27 05:14:42;;;;;;;15.05;6.35;;;;;;;;;;5033743;28;20021;-38
2021/10/27 05:17:12;;;;;;;5.45;4.28;;;;;;;;;;5038588;28;20013;-43
2021/10/27 05:19:38;;;;;;;11.25;3.78;;;;;;;;;;5037604;28;20026;-40
2021/10/27 05:22:04;;;;;;;7.00;4.50;;;;;;;;;;5036373;28;20116;-40
2021/10/27 05:24:29;;;;;;;8.13;3.85;;;;;;;;;;5035829;28;20021;-45
2021/10/27 05:26:54;;;;;;;7.93;4.10;;;;;;;;;;5040126;28;20037;-43
2021/10/27 05:29:20;;;;;;;4.55;3.25;;;;;;;;;;5035797;28;20017;-39
2021/10/27 05:31:45;;;;;;;5.00;2.58;;;;;;;;;;5037401;28;20024;-44
2021/10/27 05:34:10;;;;;;;3.60;2.83;;;;;;;;;;5038323;28;20049;-43
2021/10/27 05:36:36;;;;;;;8.38;2.78;;;;;;;;;;5038104;28;20527;-41
2021/10/27 05:39:02;;;;;;;5.90;3.22;;;;;;;;;;5039101;28;20151;-42
2021/10/27 05:41:28;;;;;;;6.10;2.72;;;;;;;;;;5032558;28;20507;-44
2021/10/27 05:43:53;;;;;;;18.33;6.75;;;;;;;;;;5034636;28;20022;-41
2021/10/27 05:46:20;;;;;;;9.80;4.93;;;;;;;;;;5036459;28;20124;-39
2021/10/27 05:48:48;;;;;;;8.23;4.43;;;;;;;;;;5038599;28;20162;-44
2021/10/27 05:51:24;;;;;;;14.88;5.00;;;;;;;;;;5036765;28;20025;-45
2021/10/27 05:56:33;;;;;;;15.52;4.15;;;;;;;;;;5039522;28;20043;-46
2021/10/27 05:58:59;;;;;;;9.48;8.52;;;;;;;;;;5036038;28;20469;-45
2021/10/27 06:01:25;;;;;;;19.13;9.25;;;;;;;;;;5038226;28;20529;-44
2021/10/27 06:03:50;;;;;;;12.45;10.00;;;;;;;;;;5035835;28;20029;-42
2021/10/27 06:06:15;;;;;;;14.70;6.10;;;;;;;;;;5033419;28;20523;-39
2021/10/27 06:08:40;;;;;;;6.20;5.70;;;;;;;;;;5033543;28;20029;-42
2021/10/27 06:11:10;;;;;;;5.88;5.13;;;;;;;;;;5037177;28;20045;-42
2021/10/27 06:13:44;;;;;;;7.28;4.20;;;;;;;;;;5038343;28;20038;-40
2021/10/27 06:16:09;;;;;;;6.28;5.65;;;;;;;;;;5036353;28;20366;-42
2021/10/27 06:18:35;;;;;;;6.95;5.18;;;;;;;;;;5040711;28;20457;-42
2021/10/27 06:21:00;;;;;;;8.02;5.40;;;;;;;;;;5035213;28;20029;-43
2021/10/27 06:23:25;;;;;;;6.93;5.65;;;;;;;;;;5033828;28;20033;-41
2021/10/27 06:25:51;;;;;;;10.93;5.88;;;;;;;;;;5032117;28;20017;-39
2021/10/27 06:28:22;;;;;;;8.45;6.10;;;;;;;;;;5034331;28;20025;-50
2021/10/27 06:31:04;;;;;;;9.52;5.25;;;;;;;;;;5033280;28;20053;-50
2021/10/27 06:39:13;;;;;;;10.13;6.25;;;;;;;;;;5034659;28;20491;-50
2021/10/27 06:47:06;;;;;;;24.50;10.15;;;;;;;;;;5036277;28;20161;-50
2021/10/27 06:49:32;;;;;;;7.85;6.22;;;;;;;;;;5031647;28;20104;-48
2021/10/27 06:51:57;;;;;;;12.32;8.38;;;;;;;;;;5038709;28;20021;-45
2021/10/27 06:54:23;;;;;;;13.73;8.70;;;;;;;;;;5033652;28;20009;-45
2021/10/27 06:56:48;;;;;;;7.18;6.00;;;;;;;;;;5037076;28;20022;-52
2021/10/27 06:59:23;;;;;;;13.85;8.50;;;;;;;;;;5030732;28;20025;-53
2021/10/27 07:04:44;;;;;;;16.23;14.63;;;;;;;;;;5036805;28;20021;-49
2021/10/27 07:07:10;;;;;;;23.75;16.20;;;;;;;;;;5033928;28;20124;-47
2021/10/27 07:17:49;;;;;;;13.55;12.20;;;;;;;;;;5036808;28;20023;-50
2021/10/27 07:20:14;;;;;;;14.18;11.50;;;;;;;;;;5037667;28;20022;-49
2021/10/27 07:22:40;;;;;;;13.40;12.10;;;;;;;;;;5037368;28;20103;-45
2021/10/27 07:25:05;;;;;;;13.38;12.00;;;;;;;;;;5033738;28;20381;-44
2021/10/27 07:27:31;;;;;;;18.90;11.27;;;;;;;;;;5034800;28;20020;-47
2021/10/27 07:29:57;;;;;;;18.85;11.63;;;;;;;;;;5034981;28;20043;-47
2021/10/27 07:32:23;;;;;;;12.35;10.27;;;;;;;;;;5036395;28;20040;-48
2021/10/27 07:35:14;;;;;;;19.88;13.10;;;;;;;;;;5034660;28;20384;-49
2021/10/27 07:40:34;;;;;;;28.35;17.52;;;;;;;;;;5033113;28;20496;-45
2021/10/27 07:43:04;;;;;;;27.15;18.40;;;;;;;;;;5035191;28;20037;-46
2021/10/27 07:45:31;;;;;;;22.90;17.58;;;;;;;;;;5034565;28;20060;-47
2021/10/27 07:47:56;;;;;;;35.03;20.77;;;;;;;;;;5035555;28;20304;-44
2021/10/27 07:50:27;;;;;;;33.38;23.45;;;;;;;;;;5037775;28;20723;-48
2021/10/27 07:52:52;;;;;;;44.83;25.92;;;;;;;;;;5036241;28;20779;-45
2021/10/27 07:55:19;;;;;;;43.67;32.42;;;;;;;;;;5033026;28;20028;-44
2021/10/27 07:57:44;;;;;;;47.08;31.98;;;;;;;;;;5034547;28;20025;-47
2021/10/27 08:00:11;;;;;;;23.90;21.15;;;;;;;;;;5034378;28;20051;-47
2021/10/27 08:02:36;;;;;;;18.02;16.00;;;;;;;;;;5033008;28;20036;-46
2021/10/27 08:05:02;;;;;;;19.20;16.58;;;;;;;;;;5035484;28;20472;-52
2021/10/27 08:07:27;;;;;;;14.27;12.88;;;;;;;;;;5037282;28;20014;-47
2021/10/27 08:09:53;;;;;;;11.52;9.93;;;;;;;;;;5034942;28;20028;-51
2021/10/27 08:12:18;;;;;;;20.35;11.50;;;;;;;;;;5036006;28;20534;-45
2021/10/27 08:14:43;;;;;;;15.07;11.45;;;;;;;;;;5038339;28;20013;-46
2021/10/27 08:17:08;;;;;;;16.35;11.30;;;;;;;;;;5037667;28;20498;-46
2021/10/27 08:19:34;;;;;;;32.45;26.75;;;;;;;;;;5038479;28;20436;-45
2021/10/27 08:22:03;;;;;;;47.83;27.85;;;;;;;;;;5036905;28;20533;-49
2021/10/27 08:24:28;;;;;;;36.22;30.92;;;;;;;;;;5038832;28;20029;-47
2021/10/27 08:27:03;;;;;;;49.03;35.25;;;;;;;;;;5038435;28;20040;-48
2021/10/27 08:29:29;;;;;;;41.03;28.90;;;;;;;;;;5039904;28;20082;-52
2021/10/27 08:32:03;;;;;;;32.75;29.25;;;;;;;;;;5036826;28;20021;-47
2021/10/27 08:34:39;;;;;;;35.10;28.80;;;;;;;;;;5037700;28;20055;-47
2021/10/27 08:37:05;;;;;;;46.80;30.42;;;;;;;;;;5038618;28;20078;-44
2021/10/27 08:39:30;;;;;;;31.38;28.02;;;;;;;;;;5035614;28;20025;-48
2021/10/27 08:41:56;;;;;;;38.28;27.30;;;;;;;;;;5039739;28;20075;-50
2021/10/27 08:44:21;;;;;;;39.15;27.00;;;;;;;;;;5038440;28;20017;-44
2021/10/27 08:46:46;;;;;;;46.95;26.15;;;;;;;;;;5035528;28;20096;-45
2021/10/27 08:49:14;;;;;;;18.50;16.70;;;;;;;;;;5038799;28;20380;-45
2021/10/27 08:51:39;;;;;;;29.52;18.50;;;;;;;;;;5038716;28;20037;-43
2021/10/27 08:54:07;;;;;;;17.70;15.95;;;;;;;;;;5038512;28;20074;-46
2021/10/27 08:56:34;;;;;;;21.70;18.92;;;;;;;;;;5038370;28;20029;-47
2021/10/27 08:59:08;;;;;;;19.42;16.80;;;;;;;;;;5037376;28;20056;-45
2021/10/27 09:40:58;;;;;;;15.13;11.93;;;;;;;;;;5036403;28;20125;-57
2021/10/27 10:05:08;;;;;;;24.95;18.52;;;;;;;;;;5035957;28;20032;-49
2021/10/27 10:07:34;;;;;;;22.20;15.02;;;;;;;;;;5036178;28;20412;-45
2021/10/27 10:10:01;;;;;;;28.23;16.17;;;;;;;;;;5036433;28;20018;-44
2021/10/27 10:12:27;;;;;;;34.67;14.15;;;;;;;;;;5037366;28;20642;-49
2021/10/27 10:14:52;;;;;;;15.65;13.32;;;;;;;;;;5036006;28;20534;-47
2021/10/27 10:17:18;;;;;;;39.05;16.48;;;;;;;;;;5031238;28;20033;-48
2021/10/27 10:19:43;;;;;;;22.92;18.80;;;;;;;;;;5034009;28;20276;-46
2021/10/27 10:22:28;;;;;;;27.30;14.45;;;;;;;;;;5036650;28;20025;-45
2021/10/27 10:24:54;;;;;;;18.30;16.55;;;;;;;;;;5033404;28;20136;-46
2021/10/27 10:27:36;;;;;;;14.15;10.85;;;;;;;;;;5034516;28;20036;-47
2021/10/27 10:30:04;;;;;;;13.43;11.48;;;;;;;;;;5037655;28;20037;-47
2021/10/27 10:32:32;;;;;;;16.75;13.25;;;;;;;;;;5038274;28;20048;-49
2021/10/27 10:35:01;;;;;;;14.27;9.85;;;;;;;;;;5031429;28;20070;-50
2021/10/27 10:37:32;;;;;;;14.15;11.43;;;;;;;;;;5031445;28;20022;-50
2021/10/27 10:40:01;;;;;;;;;;;;;;;;;;5035674;28;20108;-48
2021/10/27 10:43:08;;;;;;;11.18;9.48;;;;;;;;;;5033590;28;19909;-48
2021/10/27 10:55:47;;;;;;;4.72;4.32;;;;;;;;;;5034644;28;20154;-45
2021/10/27 11:00:17;;;;;;;9.63;6.20;;;;;;;;;;5031666;28;20194;-48
2021/10/27 11:41:53;;;;;;;9.13;5.80;;;;;;;;;;5034093;28;20108;-48
2021/10/27 11:44:42;;;;;;;6.43;4.38;;;;;;;;;;5032171;28;20056;-46
2021/10/27 11:47:08;;;;;;;7.38;5.00;;;;;;;;;;5033891;28;20132;-45
2021/10/27 11:49:42;;;;;;;9.23;4.22;;;;;;;;;;5030887;28;20112;-44
2021/10/27 11:52:08;;;;;;;6.03;4.68;;;;;;;;;;5034657;28;20575;-46
2021/10/27 11:54:40;;;;;;;10.52;3.55;;;;;;;;;;5035740;28;20025;-46
2021/10/27 11:57:09;;;;;;;13.35;3.05;;;;;;;;;;5033957;28;20031;-47
2021/10/27 11:59:43;;;;;;;14.35;3.08;;;;;;;;;;5034558;28;20609;-45
2021/10/27 12:02:09;;;;;;;9.40;2.95;;;;;;;;;;5029864;28;20040;-48
2021/10/27 12:04:36;;;;;;;4.10;2.95;;;;;;;;;;5029735;28;20026;-44
2021/10/27 12:07:03;;;;;;;4.22;2.03;;;;;;;;;;5030657;28;20100;-45
2021/10/27 12:17:39;;;;;;;7.28;2.72;;;;;;;;;;5027193;28;20112;-49
2021/10/27 12:20:05;;;;;;;10.90;2.60;;;;;;;;;;5032460;28;20025;-48
2021/10/27 12:22:32;;;;;;;2.80;1.67;;;;;;;;;;5032789;28;20554;-51
2021/10/27 12:24:59;;;;;;;6.47;1.27;;;;;;;;;;5026746;28;20033;-47
2021/10/27 12:27:31;;;;;;;5.85;1.95;;;;;;;;;;5034587;28;20026;-51
2021/10/27 12:30:01;;;;;;;4.63;1.60;;;;;;;;;;5028429;28;20108;-50
2021/10/27 12:32:27;;;;;;;3.97;2.20;;;;;;;;;;5031880;28;20034;-46
2021/10/27 12:34:57;;;;;;;6.32;2.45;;;;;;;;;;5036508;28;20017;-49
2021/10/27 12:37:26;;;;;;;6.85;2.47;;;;;;;;;;5031921;28;20055;-49
2021/10/27 12:39:51;;;;;;;3.45;1.85;;;;;;;;;;5030685;28;20073;-50
2021/10/27 12:42:17;;;;;;;4.15;2.35;;;;;;;;;;5028626;28;20079;-49
2021/10/27 12:44:50;;;;;;;2.17;1.35;;;;;;;;;;5033635;28;20026;-50
2021/10/27 12:47:29;;;;;;;9.30;2.28;;;;;;;;;;5031053;28;20080;-48
2021/10/27 12:50:15;;;;;;;4.38;2.08;;;;;;;;;;5030994;28;20037;-50
2021/10/27 12:52:45;;;;;;;6.32;1.50;;;;;;;;;;5031226;28;20044;-46
2021/10/27 12:55:26;;;;;;;4.00;2.05;;;;;;;;;;5028760;28;20056;-45
2021/10/27 12:58:02;;;;;;;7.95;2.53;;;;;;;;;;5027920;28;20029;-47
2021/10/27 13:01:31;;;;;;;6.35;1.95;;;;;;;;;;5034179;28;20638;-46
2021/10/27 13:06:00;;;;;;;7.20;2.45;;;;;;;;;;5036651;28;20056;-49
2021/10/27 13:19:19;;;;;;;4.75;1.63;;;;;;;;;;5037819;28;20032;-50
2021/10/27 13:29:46;;;;;;;2.00;0.98;;;;;;;;;;5037995;28;20089;-46
2021/10/27 13:32:15;;;;;;;10.15;4.00;;;;;;;;;;5036469;28;20045;-50
2021/10/27 13:34:40;;;;;;;4.55;2.47;;;;;;;;;;5037227;28;20029;-49
2021/10/27 13:37:07;;;;;;;3.15;1.50;;;;;;;;;;5035930;28;20132;-48
2021/10/27 13:39:33;;;;;;;1.60;0.95;;;;;;;;;;5032351;28;20025;-50
2021/10/27 13:42:03;;;;;;;4.18;2.00;;;;;;;;;;5037636;28;20082;-50
2021/10/27 13:44:34;;;;;;;1.45;0.88;;;;;;;;;;5039439;28;20273;-47
2021/10/27 13:58:33;;;;;;;2.47;1.50;;;;;;;;;;5031606;28;20051;-50
2021/10/27 14:06:27;;;;;;;4.13;1.60;;;;;;;;;;5029805;28;20044;-47
2021/10/27 14:09:00;;;;;;;6.30;1.48;;;;;;;;;;5032761;28;20044;-51
2021/10/27 14:16:36;;;;;;;1.10;0.75;;;;;;;;;;5035178;28;20025;-55
2021/10/27 15:21:17;;;;;;;6.53;3.65;;;;;;;;;;5031084;28;20082;-51
2021/10/27 15:24:08;;;;;;;8.25;4.25;;;;;;;;;;5032184;28;20028;-53
2021/10/27 15:31:31;;;;;;;8.20;4.75;;;;;;;;;;5035327;28;20241;-55
2021/10/27 15:36:50;;;;;;;8.32;4.47;;;;;;;;;;5035485;28;21041;-52
2021/10/27 15:52:24;;;;;;;10.55;7.75;;;;;;;;;;5033931;28;20036;-56
2021/10/27 15:54:50;;;;;;;20.02;8.73;;;;;;;;;;5034480;28;20039;-47
2021/10/27 15:57:15;;;;;;;24.70;16.13;;;;;;;;;;5031797;28;20477;-50
2021/10/27 15:59:41;;;;;;;16.83;11.10;;;;;;;;;;5030971;28;20931;-50
2021/10/27 16:02:07;;;;;;;15.48;13.05;;;;;;;;;;5027973;28;20023;-44
2021/10/27 16:04:33;;;;;;;11.98;7.72;;;;;;;;;;5032562;28;20443;-49
2021/10/27 16:06:59;;;;;;;16.90;6.10;;;;;;;;;;5029430;28;20182;-49
2021/10/27 16:09:29;;;;;;;9.60;5.40;;;;;;;;;;5036457;28;20036;-49
2021/10/27 16:11:55;;;;;;;11.80;4.20;;;;;;;;;;5032618;28;20036;-47
2021/10/27 16:14:23;;;;;;;6.03;5.18;;;;;;;;;;5033836;28;20086;-50
2021/10/27 16:16:49;;;;;;;8.65;5.00;;;;;;;;;;5033443;28;20443;-53
2021/10/27 16:19:14;;;;;;;13.55;6.05;;;;;;;;;;5035769;28;20120;-47
2021/10/27 16:21:40;;;;;;;12.70;7.57;;;;;;;;;;5033233;28;20448;-47
2021/10/27 16:24:09;;;;;;;13.30;9.98;;;;;;;;;;5032000;28;20032;-48
2021/10/27 16:26:35;;;;;;;19.63;16.58;;;;;;;;;;5034209;28;20024;-50
2021/10/27 16:29:01;;;;;;;25.25;13.15;;;;;;;;;;5036590;28;20195;-49
2021/10/27 16:31:26;;;;;;;9.75;7.25;;;;;;;;;;5032876;28;20021;-45
2021/10/27 16:33:52;;;;;;;6.95;6.00;;;;;;;;;;5033204;28;20028;-46
2021/10/27 16:36:20;;;;;;;7.95;3.58;;;;;;;;;;5036659;28;20041;-51
2021/10/27 16:38:45;;;;;;;5.90;3.17;;;;;;;;;;5038078;28;20091;-47
2021/10/27 16:41:11;;;;;;;5.82;3.92;;;;;;;;;;5032307;28;20483;-47
2021/10/27 16:43:36;;;;;;;14.25;4.85;;;;;;;;;;5033251;28;20141;-49
2021/10/27 16:46:02;;;;;;;11.63;3.65;;;;;;;;;;5034808;28;20050;-49
2021/10/27 16:48:27;;;;;;;8.85;4.53;;;;;;;;;;5031405;28;20029;-51
2021/10/27 16:50:53;;;;;;;6.65;4.40;;;;;;;;;;5039081;28;20104;-52
2021/10/27 16:53:20;;;;;;;10.25;5.97;;;;;;;;;;5033463;28;20400;-48
2021/10/27 16:55:45;;;;;;;6.55;5.03;;;;;;;;;;5036823;28;20319;-50
2021/10/27 16:58:10;;;;;;;13.45;7.68;;;;;;;;;;5036172;28;20144;-49
2021/10/27 17:00:36;;;;;;;8.45;6.28;;;;;;;;;;5032489;28;20100;-51
2021/10/27 17:03:01;;;;;;;10.70;6.97;;;;;;;;;;5035976;28;20040;-51
2021/10/27 17:05:27;;;;;;;10.23;5.38;;;;;;;;;;5035179;28;20480;-50
2021/10/27 17:07:53;;;;;;;10.38;8.70;;;;;;;;;;5034551;28;20072;-49
2021/10/27 17:10:19;;;;;;;13.25;6.43;;;;;;;;;;5035375;28;20025;-50
2021/10/27 17:12:44;;;;;;;16.75;10.20;;;;;;;;;;5032449;28;20026;-51
2021/10/27 17:15:10;;;;;;;7.47;6.13;;;;;;;;;;5030252;28;20369;-47
2021/10/27 17:17:36;;;;;;;17.00;9.40;;;;;;;;;;5035624;28;20025;-51
2021/10/27 17:20:01;;;;;;;8.40;7.35;;;;;;;;;;5035302;28;20022;-45
2021/10/27 17:22:28;;;;;;;10.18;7.03;;;;;;;;;;5034442;28;20052;-47
2021/10/27 17:24:54;;;;;;;21.92;7.68;;;;;;;;;;5036335;28;20052;-49
2021/10/27 17:27:20;;;;;;;10.60;7.22;;;;;;;;;;5035772;28;20511;-45
2021/10/27 17:29:46;;;;;;;6.15;5.43;;;;;;;;;;5033103;28;20029;-41
2021/10/27 17:32:11;;;;;;;14.70;9.48;;;;;;;;;;5035858;28;20032;-42
2021/10/27 17:34:37;;;;;;;14.45;8.25;;;;;;;;;;5030085;28;20515;-44
2021/10/27 17:37:02;;;;;;;14.35;7.55;;;;;;;;;;5033321;28;20503;-45
2021/10/27 17:39:29;;;;;;;8.60;6.82;;;;;;;;;;5033412;28;20463;-47
2021/10/27 17:41:56;;;;;;;10.02;8.15;;;;;;;;;;5037444;28;20108;-50
2021/10/27 17:44:22;;;;;;;12.60;9.35;;;;;;;;;;5034299;28;20036;-44
2021/10/27 17:46:52;;;;;;;10.15;7.43;;;;;;;;;;5033578;28;20057;-43
2021/10/27 17:49:36;;;;;;;17.05;9.90;;;;;;;;;;5036091;28;20072;-46
2021/10/27 17:52:11;;;;;;;20.23;8.40;;;;;;;;;;5036827;28;20035;-43
2021/10/27 18:00:05;;;;;;;18.52;11.40;;;;;;;;;;5026577;28;20109;-44
2021/10/27 18:02:31;;;;;;;13.55;9.25;;;;;;;;;;5031258;28;20094;-45
2021/10/27 18:04:59;;;;;;;15.68;9.68;;;;;;;;;;5033800;28;20736;-43
2021/10/27 18:07:28;;;;;;;14.52;9.88;;;;;;;;;;5032272;28;20053;-43
2021/10/27 18:09:54;;;;;;;25.23;10.43;;;;;;;;;;5035191;28;20028;-47
2021/10/27 18:12:24;;;;;;;11.98;8.90;;;;;;;;;;5031205;28;20544;-43
2021/10/27 18:14:51;;;;;;;14.43;8.75;;;;;;;;;;5037328;28;20465;-46
2021/10/27 18:17:19;;;;;;;12.02;7.40;;;;;;;;;;5032931;28;20061;-44
2021/10/27 18:43:33;;;;;;;7.00;6.22;;;;;;;;;;5034886;28;20029;-42
2021/10/27 18:45:55;;;;;;;17.38;9.73;;;;;;;;;;5033922;28;20075;-42
2021/10/27 18:48:21;;;;;;;10.50;8.90;;;;;;;;;;5036182;28;20026;-42
2021/10/27 18:59:05;;;;;;;13.30;10.25;;;;;;;;;;5030194;28;20021;-49
2021/10/27 19:12:10;;;;;;;8.25;7.30;;;;;;;;;;5034505;28;20112;-43
2021/10/27 19:17:01;;;;;;;8.68;7.50;;;;;;;;;;5035878;28;20676;-47
2021/10/27 19:19:26;;;;;;;11.70;6.97;;;;;;;;;;5039682;28;20031;-42
2021/10/27 19:21:51;;;;;;;11.02;6.93;;;;;;;;;;5035809;28;20536;-46
2021/10/27 19:24:29;;;;;;;11.68;8.75;;;;;;;;;;5031981;28;20413;-45
2021/10/27 19:27:00;;;;;;;12.98;8.00;;;;;;;;;;5030940;28;20029;-46
2021/10/27 19:29:30;;;;;;;11.20;7.40;;;;;;;;;;5030727;28;20036;-46
2021/10/27 20:17:53;;;;;;;14.63;12.90;;;;;;;;;;5037416;28;20020;-46
2021/10/27 20:50:36;;;;;;;10.52;7.88;;;;;;;;;;5035942;28;20041;-48
2021/10/27 20:53:10;;;;;;;14.52;8.70;;;;;;;;;;5035551;28;20116;-47
2021/10/27 20:55:36;;;;;;;13.75;9.07;;;;;;;;;;5036316;28;20583;-46
2021/10/27 21:00:46;;;;;;;;;;;;;;;;;;5036965;28;20052;-46
2021/10/27 21:14:08;;;;;;;15.50;9.25;;;;;;;;;;5034882;28;20613;-45
2021/10/27 21:16:34;;;;;;;13.02;10.90;;;;;;;;;;5036892;28;20033;-44
2021/10/27 21:18:59;;;;;;;9.02;8.13;;;;;;;;;;5036302;28;20025;-43
2021/10/27 21:21:25;;;;;;;12.90;8.23;;;;;;;;;;5035086;28;20507;-46
2021/10/27 21:23:51;;;;;;;9.18;7.85;;;;;;;;;;5038437;28;20025;-44
2021/10/27 21:26:19;;;;;;;11.07;8.82;;;;;;;;;;5032861;28;20033;-42
2021/10/27 21:29:11;;;;;;;11.10;8.52;;;;;;;;;;5035330;28;20028;-42
2021/10/27 21:44:56;;;;;;;;;;;;;;;;;;5034842;28;20504;-42